Time;durP1;ratioP1;P1;durP2;ratioP2;P2;SDS_P1;SDS_P2;PMS_P1;PMS_P2;Temp;Humidity;BMP_temperature;BMP_pressure;BME280_temperature;BME280_humidity;BME280_pressure;Samples;Min_cycle;Max_cycle;Signal;HPM_P1;HPM_P2
2022/05/16 05:33:02;;;;;;;6.80;1.70;;;;;;;14.11;62.22;100283.00;1825707;77;21062;-40
2022/05/16 05:35:29;;;;;;;5.05;1.77;;;;;;;14.24;63.39;100286.31;1796449;78;21226;-40
2022/05/16 05:37:56;;;;;;;5.92;1.67;;;;;;;14.36;63.06;100284.80;1782755;77;21061;-40
2022/05/16 05:40:23;;;;;;;6.08;1.65;;;;;;;14.45;62.37;100283.80;1787747;79;21026;-40
2022/05/16 05:42:50;;;;;;;3.87;1.62;;;;;;;14.55;63.70;100285.85;1799214;78;20964;-39
2022/05/16 05:45:18;;;;;;;3.45;1.77;;;;;;;14.65;61.21;100287.45;1789225;78;21659;-40
2022/05/16 05:47:45;;;;;;;11.97;3.40;;;;;;;14.72;59.93;100281.17;1801715;77;21010;-39
2022/05/16 05:50:11;;;;;;;28.85;6.35;;;;;;;14.75;60.32;100279.81;1809988;77;21022;-47
2022/05/16 05:52:40;;;;;;;7.30;2.60;;;;;;;14.81;60.44;100283.66;1816512;77;20961;-47
2022/05/16 05:55:08;;;;;;;11.25;3.25;;;;;;;14.85;58.88;100277.91;1735725;79;21531;-47
2022/05/16 05:57:35;;;;;;;19.00;4.87;;;;;;;14.89;58.33;100274.30;1792478;78;21001;-48
2022/05/16 06:00:04;;;;;;;7.78;2.60;;;;;;;14.98;59.25;100274.59;1811104;77;21110;-46
2022/05/16 06:02:32;;;;;;;4.28;1.70;;;;;;;15.10;58.86;100275.23;1802132;78;21535;-47
2022/05/16 06:04:59;;;;;;;7.75;1.77;;;;;;;15.20;58.67;100273.30;1804901;77;21041;-47
2022/05/16 06:07:25;;;;;;;5.55;1.82;;;;;;;15.26;57.90;100273.63;1787057;76;21537;-47
2022/05/16 06:09:52;;;;;;;4.10;1.50;;;;;;;15.29;58.06;100271.78;1797038;78;21889;-47
2022/05/16 06:12:18;;;;;;;8.33;2.02;;;;;;;15.36;57.81;100271.20;1783938;78;20961;-47
2022/05/16 06:14:44;;;;;;;5.28;1.75;;;;;;;15.41;56.33;100275.48;1803074;76;20993;-47
2022/05/16 06:17:12;;;;;;;5.17;2.00;;;;;;;15.46;56.03;100270.59;1812495;77;21023;-47
2022/05/16 06:19:38;;;;;;;5.08;1.40;;;;;;;15.53;56.12;100271.73;1810382;77;21073;-47
2022/05/16 06:22:05;;;;;;;6.03;1.90;;;;;;;15.63;51.63;100273.32;1802624;77;21021;-47
2022/05/16 06:27:18;;;;;;;5.78;1.35;;;;;;;15.82;51.97;100280.38;1798318;77;21468;-47
2022/05/16 06:29:46;;;;;;;5.28;1.70;;;;;;;15.92;52.28;100276.65;1774394;77;21091;-47
2022/05/16 06:32:13;;;;;;;70.92;13.72;;;;;;;16.01;50.19;100285.28;1828047;77;21565;-47
2022/05/16 06:34:40;;;;;;;25.37;6.80;;;;;;;16.03;49.30;100283.02;1811701;77;21837;-47
2022/05/16 06:37:06;;;;;;;2.62;0.90;;;;;;;16.07;50.08;100290.42;1806796;77;21539;-47
2022/05/16 06:39:33;;;;;;;5.90;1.67;;;;;;;16.11;45.92;100285.47;1763943;78;21020;-39
2022/05/16 06:41:59;;;;;;;1.90;1.12;;;;;;;16.15;46.34;100288.46;1783219;78;21056;-40
2022/05/16 06:44:28;;;;;;;4.33;1.37;;;;;;;16.22;47.05;100294.01;1787912;78;21044;-40
2022/05/16 06:46:55;;;;;;;2.60;1.20;;;;;;;16.30;46.44;100281.52;1774433;78;21052;-40
2022/05/16 06:49:22;;;;;;;8.30;1.60;;;;;;;16.37;46.99;100284.42;1761951;79;21031;-41
2022/05/16 06:51:48;;;;;;;5.33;2.02;;;;;;;16.45;46.03;100284.22;1767571;79;21080;-40
2022/05/16 06:54:15;;;;;;;7.50;2.37;;;;;;;16.50;44.72;100280.56;1762320;79;20989;-40
2022/05/16 06:56:41;;;;;;;12.07;3.47;;;;;;;16.51;44.62;100285.39;1788828;79;21009;-39
2022/05/16 06:59:08;;;;;;;19.80;4.37;;;;;;;16.51;44.95;100280.11;1765358;78;20948;-40
2022/05/16 07:01:35;;;;;;;19.00;5.72;;;;;;;16.57;46.67;100286.56;1766597;79;21013;-39
2022/05/16 07:04:04;;;;;;;16.82;3.08;;;;;;;16.66;41.21;100283.70;1765402;78;21123;-39
2022/05/16 07:06:31;;;;;;;3.42;1.30;;;;;;;16.71;42.52;100280.53;1776840;79;21008;-39
2022/05/16 07:08:58;;;;;;;26.97;6.00;;;;;;;16.77;41.99;100283.47;1783227;79;21048;-40
2022/05/16 07:11:24;;;;;;;6.05;2.15;;;;;;;16.78;44.00;100281.23;1789650;78;21041;-40
2022/05/16 07:13:52;;;;;;;14.87;3.15;;;;;;;16.86;43.18;100279.71;1753191;80;21013;-40
2022/05/16 07:16:18;;;;;;;3.67;1.50;;;;;;;16.92;41.54;100283.52;1769183;79;21044;-40
2022/05/16 07:18:45;;;;;;;6.53;1.35;;;;;;;16.94;41.78;100274.66;1745219;78;20977;-40
2022/05/16 07:21:12;;;;;;;27.50;6.00;;;;;;;16.97;43.60;100284.27;1810465;77;21025;-40
2022/05/16 07:23:39;;;;;;;8.03;1.90;;;;;;;16.99;44.45;100279.83;1793748;77;20997;-39
2022/05/16 07:28:50;;;;;;;1.85;1.12;;;;;;;17.17;42.96;100291.67;1799676;77;21013;-39
2022/05/16 07:31:16;;;;;;;5.53;1.50;;;;;;;17.12;41.69;100285.19;1812354;77;21563;-40
2022/05/16 07:33:43;;;;;;;4.45;1.85;;;;;;;17.05;42.21;100279.66;1785389;78;21044;-39
2022/05/16 07:36:10;;;;;;;23.20;4.92;;;;;;;17.05;42.11;100278.77;1815423;77;21036;-39
2022/05/16 07:38:36;;;;;;;3.37;1.50;;;;;;;17.10;43.08;100284.34;1815470;78;21039;-46
2022/05/16 07:41:03;;;;;;;2.15;1.00;;;;;;;17.18;42.05;100277.55;1825733;77;21547;-40
2022/05/16 07:43:30;;;;;;;1.60;1.15;;;;;;;17.30;42.88;100278.53;1759310;80;22192;-48
2022/05/16 07:45:56;;;;;;;2.47;0.90;;;;;;;17.42;44.11;100286.11;1742949;80;21477;-39
2022/05/16 07:48:23;;;;;;;1.82;0.90;;;;;;;17.55;41.70;100280.02;1758047;80;21064;-46
2022/05/16 07:50:49;;;;;;;1.65;0.88;;;;;;;17.64;41.42;100277.11;1820258;77;21627;-46
2022/05/16 07:53:16;;;;;;;8.43;1.20;;;;;;;17.73;40.92;100278.64;1806028;78;21484;-40
2022/05/16 07:55:51;;;;;;;2.10;1.10;;;;;;;17.80;39.98;100281.08;1820428;77;20995;-47
2022/05/16 07:58:20;;;;;;;1.45;0.80;;;;;;;17.82;40.84;100282.34;1830655;76;21554;-40
2022/05/16 08:00:52;;;;;;;2.95;1.12;;;;;;;17.84;41.31;100273.89;1831820;77;21125;-47
2022/05/16 08:03:21;;;;;;;1.20;0.70;;;;;;;17.90;41.52;100284.75;1835383;77;21628;-40
2022/05/16 08:05:48;;;;;;;1.40;0.88;;;;;;;17.91;38.77;100276.76;1807003;76;21081;-48
2022/05/16 08:11:03;;;;;;;7.62;1.05;;;;;;;17.95;39.72;100284.16;1801193;78;21552;-40
2022/05/16 08:13:30;;;;;;;2.92;1.10;;;;;;;17.95;40.20;100283.70;1804946;78;21517;-41
2022/05/16 08:15:58;;;;;;;3.67;1.32;;;;;;;17.96;39.61;100289.40;1792108;78;21085;-47
2022/05/16 08:18:24;;;;;;;5.55;1.45;;;;;;;17.94;37.83;100285.95;1803894;78;21045;-48
2022/05/16 08:20:51;;;;;;;2.58;1.10;;;;;;;17.91;37.91;100275.89;1816269;76;20993;-47
2022/05/16 08:23:21;;;;;;;1.47;0.70;;;;;;;17.92;38.74;100281.63;1788553;78;20970;-40
2022/05/16 08:25:48;;;;;;;10.28;1.75;;;;;;;17.97;38.96;100278.35;1793103;78;21033;-40
2022/05/16 08:28:15;;;;;;;5.53;1.40;;;;;;;18.04;38.56;100274.17;1794959;78;21528;-47
2022/05/16 08:30:41;;;;;;;3.83;1.17;;;;;;;18.15;39.02;100268.97;1794730;77;21146;-47
2022/05/16 08:33:08;;;;;;;3.30;0.88;;;;;;;18.27;38.12;100270.80;1799840;78;20996;-40
2022/05/16 08:35:35;;;;;;;1.85;0.80;;;;;;;18.37;36.31;100271.34;1770328;79;21612;-47
2022/05/16 08:40:56;;;;;;;1.45;0.70;;;;;;;18.49;38.95;100259.02;1779956;79;21086;-47
2022/05/16 08:43:54;;;;;;;3.02;0.50;;;;;;;18.59;38.31;100263.11;1778688;79;21014;-40
2022/05/16 08:46:37;;;;;;;0.78;0.42;;;;;;;18.67;37.44;100256.28;1815143;77;21014;-43
2022/05/16 08:49:20;;;;;;;2.87;1.10;;;;;;;18.70;37.09;100256.63;1804991;75;21062;-40
2022/05/16 08:51:51;;;;;;;6.03;1.30;;;;;;;18.74;37.47;100266.21;1815123;76;21005;-48
2022/05/16 08:54:44;;;;;;;3.67;1.00;;;;;;;18.79;36.41;100252.34;1804664;78;20981;-48
2022/05/16 08:57:14;;;;;;;1.27;0.68;;;;;;;18.78;35.50;100260.73;1811694;77;21539;-40
2022/05/16 08:59:42;;;;;;;5.45;1.40;;;;;;;18.74;36.12;100259.12;1827703;77;21137;-40
2022/05/16 09:02:21;;;;;;;4.60;1.30;;;;;;;18.76;35.78;100257.73;1816841;75;20994;-42
2022/05/16 09:05:12;;;;;;;0.78;0.60;;;;;;;18.73;36.85;100257.83;1831748;76;21551;-48
2022/05/16 09:07:54;;;;;;;1.98;0.70;;;;;;;18.72;36.53;100250.80;1831995;76;21013;-40
2022/05/16 09:10:40;;;;;;;6.35;0.60;;;;;;;18.78;35.48;100261.19;1805206;77;21034;-47
2022/05/16 09:13:28;;;;;;;1.10;0.60;;;;;;;18.89;35.89;100278.92;1810604;77;20997;-47
2022/05/16 09:16:21;;;;;;;0.72;0.55;;;;;;;18.91;34.80;100251.92;1816198;77;21616;-48
2022/05/16 09:19:11;;;;;;;2.65;0.72;;;;;;;18.86;35.37;100251.20;1826714;76;21007;-40
2022/05/16 09:21:50;;;;;;;0.70;0.50;;;;;;;18.78;34.35;100250.13;1816078;76;20978;-48
2022/05/16 09:24:36;;;;;;;1.32;1.10;;;;;;;18.79;35.59;100249.70;1838013;77;21503;-48
2022/05/16 09:27:10;;;;;;;2.30;0.60;;;;;;;18.92;35.75;100249.67;1839201;77;21584;-47
2022/05/16 09:29:42;;;;;;;3.72;0.50;;;;;;;19.08;35.01;100237.61;1775699;80;21023;-40
2022/05/16 09:32:28;;;;;;;4.78;1.85;;;;;;;19.20;34.69;100243.39;1778715;79;21021;-47
2022/05/16 09:34:56;;;;;;;5.33;0.85;;;;;;;19.23;34.92;100245.91;1779859;79;21105;-47
2022/05/16 09:37:23;;;;;;;0.42;0.40;;;;;;;19.20;32.68;100238.95;1769743;79;21042;-47
2022/05/16 09:39:49;;;;;;;1.35;0.70;;;;;;;19.16;34.04;100238.65;1771834;79;21643;-47
2022/05/16 09:42:26;;;;;;;0.42;0.30;;;;;;;19.19;34.70;100233.68;1741090;80;21004;-47
2022/05/16 09:45:05;;;;;;;1.82;0.45;;;;;;;19.17;34.85;100232.88;1761237;80;21044;-41
2022/05/16 09:47:37;;;;;;;2.22;0.80;;;;;;;19.05;34.47;100241.68;1674729;84;21076;-40
2022/05/16 09:50:14;;;;;;;1.55;0.60;;;;;;;19.00;34.70;100233.48;1658237;84;21065;-48
2022/05/16 09:53:09;;;;;;;4.58;0.60;;;;;;;19.07;35.74;100227.89;1656347;85;21029;-47
2022/05/16 09:55:55;;;;;;;1.90;0.40;;;;;;;19.23;34.71;100230.87;1661798;84;21076;-41
2022/05/16 09:58:28;;;;;;;1.85;0.60;;;;;;;19.35;33.57;100225.11;1658146;84;21147;-48
2022/05/16 10:01:04;;;;;;;1.22;0.55;;;;;;;19.26;32.22;100228.58;1658311;85;21129;-40
2022/05/16 10:03:45;;;;;;;2.72;0.50;;;;;;;19.11;32.84;100216.27;1660015;85;21068;-41
2022/05/16 10:06:33;;;;;;;0.80;0.47;;;;;;;19.03;34.61;100223.64;1665858;81;21076;-47
2022/05/16 10:09:09;;;;;;;2.40;0.70;;;;;;;19.03;34.05;100214.83;1729435;81;21036;-39
2022/05/16 10:11:38;;;;;;;1.52;0.60;;;;;;;19.01;33.38;100216.66;1719619;81;21575;-40
2022/05/16 10:14:05;;;;;;;2.05;1.07;;;;;;;19.02;32.68;100216.62;1672412;83;21123;-47
2022/05/16 10:16:35;;;;;;;1.72;0.60;;;;;;;19.09;33.08;100218.59;1674017;82;21160;-40
2022/05/16 10:19:05;;;;;;;0.98;0.47;;;;;;;19.08;32.89;100212.42;1689748;82;21948;-48
2022/05/16 10:21:39;;;;;;;2.58;0.72;;;;;;;19.11;33.75;100203.02;1676502;82;21018;-48
2022/05/16 10:24:10;;;;;;;4.00;1.35;;;;;;;19.20;34.67;100216.87;1712796;80;21077;-42
2022/05/16 10:26:43;;;;;;;4.90;1.10;;;;;;;19.27;34.07;100210.41;1792088;77;21102;-41
2022/05/16 10:29:26;;;;;;;7.83;1.92;;;;;;;19.27;33.14;100216.58;1812898;77;21531;-41
2022/05/16 10:34:46;;;;;;;2.20;0.60;;;;;;;19.16;34.14;100205.97;1838720;77;21016;-48
2022/05/16 10:37:13;;;;;;;1.05;0.60;;;;;;;19.46;35.51;100208.80;1825921;77;21506;-41
2022/05/16 10:39:56;;;;;;;1.00;0.62;;;;;;;19.45;34.04;100205.74;1820355;77;21053;-48
2022/05/16 10:42:32;;;;;;;1.55;0.60;;;;;;;19.40;33.50;100202.39;1821573;77;20950;-48
2022/05/16 10:45:09;;;;;;;1.47;0.62;;;;;;;19.29;34.86;100209.89;1810232;78;21081;-49
2022/05/16 10:48:14;;;;;;;1.95;0.80;;;;;;;19.21;34.40;100199.57;1796632;77;20950;-48
2022/05/16 10:50:51;;;;;;;1.50;0.70;;;;;;;19.26;35.37;100198.95;1758847;80;21093;-48
2022/05/16 10:53:29;;;;;;;1.82;0.85;;;;;;;19.59;35.23;100194.16;1795199;78;20991;-48
2022/05/16 10:56:18;;;;;;;3.55;0.75;;;;;;;19.90;34.75;100199.61;1778893;79;21020;-48
2022/05/16 10:58:53;;;;;;;1.47;0.70;;;;;;;20.04;32.51;100193.73;1797295;77;20984;-41
2022/05/16 11:01:23;;;;;;;2.02;0.85;;;;;;;20.01;33.09;100186.77;1780912;78;21023;-41
2022/05/16 11:04:05;;;;;;;1.42;0.70;;;;;;;20.06;32.94;100199.84;1781737;77;21059;-43
2022/05/16 11:06:42;;;;;;;1.55;0.60;;;;;;;19.95;33.98;100179.52;1744399;78;21040;-48
2022/05/16 11:09:29;;;;;;;2.47;0.80;;;;;;;19.85;33.21;100190.96;1780996;79;21072;-47
2022/05/16 11:12:34;;;;;;;3.08;0.53;;;;;;;19.77;33.21;100175.35;1764188;79;21696;-47
2022/05/16 11:15:15;;;;;;;1.40;0.60;;;;;;;19.68;34.10;100177.03;1731226;81;21060;-47
2022/05/16 11:18:06;;;;;;;2.52;0.95;;;;;;;19.68;33.43;100174.38;1784617;79;21039;-46
2022/05/16 11:20:48;;;;;;;1.47;0.60;;;;;;;19.75;34.55;100177.64;1761239;79;21074;-39
2022/05/16 11:23:32;;;;;;;1.40;0.80;;;;;;;19.83;34.69;100179.09;1780644;79;21050;-47
2022/05/16 11:26:28;;;;;;;2.15;0.72;;;;;;;19.91;34.15;100186.27;1772672;78;22294;-39
2022/05/16 11:29:24;;;;;;;2.30;1.17;;;;;;;19.98;34.31;100164.78;1764127;79;21019;-41
2022/05/16 11:31:41;;;;;;;;;;;;;;;20.02;34.46;100160.62;1750054;80;21092;-47
2022/05/16 11:34:12;;;;;;;2.10;0.70;;;;;;;19.98;33.69;100159.00;1743972;80;20525;-41
2022/05/16 11:37:08;;;;;;;1.77;0.60;;;;;;;19.95;33.01;100167.58;1783282;78;21053;-40
2022/05/16 11:39:44;;;;;;;2.83;0.60;;;;;;;19.87;33.80;100158.11;1823058;77;21602;-48
2022/05/16 11:54:00;;;;;;;2.75;0.70;;;;;;;20.22;33.83;100156.27;1788953;80;23327;-45
2022/05/16 12:02:35;;;;;;;6.15;0.90;;;;;;;20.27;33.80;100147.64;1775507;81;21119;-47
2022/05/16 12:05:22;;;;;;;3.37;0.85;;;;;;;20.23;34.63;100152.20;1749343;81;21071;-48
2022/05/16 12:07:57;;;;;;;3.70;1.67;;;;;;;20.14;33.58;100137.53;1774609;81;21075;-41
2022/05/16 12:10:26;;;;;;;2.35;0.90;;;;;;;20.10;33.98;100138.58;1762905;81;21051;-48
2022/05/16 12:13:23;;;;;;;2.08;0.82;;;;;;;20.08;33.68;100143.57;1750769;81;21044;-48
2022/05/16 12:16:18;;;;;;;3.60;0.98;;;;;;;20.07;33.39;100125.91;1736470;81;21371;-48
2022/05/16 12:19:11;;;;;;;4.75;0.70;;;;;;;20.06;34.30;100131.69;1762386;80;21052;-41
2022/05/16 12:21:39;;;;;;;1.35;0.60;;;;;;;20.08;34.53;100137.79;1747201;81;21672;-48
2022/05/16 12:24:15;;;;;;;6.40;0.70;;;;;;;20.05;32.92;100137.05;1792612;80;21432;-47
2022/05/16 12:27:08;;;;;;;4.00;0.80;;;;;;;20.05;34.06;100143.21;1775232;79;21385;-41
2022/05/16 12:29:40;;;;;;;;;;;;;;;20.22;34.51;100125.25;1772732;80;21492;-41
2022/05/16 12:32:07;;;;;;;3.02;0.93;;;;;;;20.44;35.54;100123.88;1760072;80;20104;-48
2022/05/16 12:34:42;;;;;;;7.03;0.82;;;;;;;20.53;33.60;100120.00;1738578;81;21056;-41
2022/05/16 12:37:14;;;;;;;2.22;0.80;;;;;;;20.54;33.74;100133.22;1762581;80;21527;-41
2022/05/16 12:39:55;;;;;;;3.90;0.80;;;;;;;20.58;33.41;100130.80;1764378;81;21550;-48
2022/05/16 12:43:00;;;;;;;1.60;0.80;;;;;;;20.59;33.77;100125.91;1763763;81;21092;-42
2022/05/16 12:45:57;;;;;;;4.30;0.98;;;;;;;20.76;34.17;100134.91;1751081;81;21019;-46
2022/05/16 12:49:00;;;;;;;3.98;1.00;;;;;;;20.86;34.90;100129.11;1745194;81;21028;-41
2022/05/16 12:52:04;;;;;;;2.08;0.80;;;;;;;20.90;33.10;100115.23;1731003;81;21067;-41
2022/05/16 12:55:02;;;;;;;1.22;0.90;;;;;;;20.71;32.55;100127.16;1763513;81;21021;-46
2022/05/16 12:57:37;;;;;;;3.83;0.80;;;;;;;20.49;32.82;100112.62;1666082;84;21089;-46
2022/05/16 13:00:12;;;;;;;1.00;0.70;;;;;;;20.36;33.56;100113.59;1649910;86;22395;-46
2022/05/16 13:02:54;;;;;;;2.22;0.90;;;;;;;20.22;33.05;100110.64;1707638;82;21051;-47
2022/05/16 13:06:00;;;;;;;2.05;1.20;;;;;;;20.06;34.03;100105.14;1719156;83;21014;-40
2022/05/16 13:08:32;;;;;;;3.60;0.75;;;;;;;19.98;34.85;100097.94;1718763;82;21581;-48
2022/05/16 13:11:33;;;;;;;2.25;1.00;;;;;;;19.95;35.34;100103.86;1714760;83;21034;-40
2022/05/16 13:14:14;;;;;;;4.03;0.82;;;;;;;19.93;34.56;100096.80;1706687;83;21053;-41
2022/05/16 13:16:59;;;;;;;5.80;0.70;;;;;;;19.87;35.13;100091.74;1718845;82;21038;-41
